Whiskey Flats, Nevada
Current Conditions -  °F | °C
As of 6:52 PM on Friday 21 Nov 2014 (Local Time) from KBAN Reporting Station
Overcast Overcast  
Wind Chill: 36°   Ceiling: 6500
Heat Index: 43°   Visibility: NA
Dew Point: 23°   Wind: 13mph
Humidity: 45%   Direction: 230°SW
Pressure: 30.1"   Gusts: 23mph
Location:  38.6331°N, 118.656°W
Report Text: KBAN 220252Z AUTO 23011G20KT OVC065 06/M05 A3010 RMK AO2 SLP198 T00611050 51015 $
Loading
Personal Weather Stations






























Interactive Weather Map New forecast layout! Learn more

10-Day Weather Forecast

Advertisements
Track Severe Weather on mobile